createdAt,value
2018-01-12T00:01:27.098Z,101969.78
2018-01-12T00:03:54.740Z,101973.30
2018-01-12T00:06:22.335Z,101986.92
2018-01-12T00:08:49.901Z,101985.60
2018-01-12T00:11:17.443Z,101981.72
2018-01-12T00:13:44.981Z,101984.22
2018-01-12T00:16:12.538Z,101982.48
2018-01-12T00:18:40.103Z,101988.72
2018-01-12T00:21:07.663Z,101992.23
2018-01-12T00:23:35.186Z,101992.17
2018-01-12T00:26:02.718Z,101992.20
2018-01-12T00:28:30.360Z,101997.06
2018-01-12T00:30:57.899Z,102002.33
2018-01-12T00:33:25.430Z,102002.19
2018-01-12T00:35:52.961Z,102003.99
2018-01-12T00:38:20.489Z,102018.05
2018-01-12T00:40:48.004Z,102013.67
2018-01-12T00:43:15.541Z,102011.87
2018-01-12T00:45:43.088Z,102013.70
2018-01-12T00:48:10.613Z,102017.53
2018-01-12T00:50:38.133Z,102009.18
2018-01-12T00:53:05.662Z,102004.43
2018-01-12T00:55:33.186Z,102015.41
2018-01-12T00:58:00.719Z,102023.42
2018-01-12T01:00:28.246Z,102015.55
2018-01-12T01:02:55.776Z,102023.80
2018-01-12T01:05:23.300Z,102026.08
2018-01-12T01:07:50.885Z,102032.73
2018-01-12T01:10:18.415Z,102037.19
2018-01-12T01:12:45.943Z,102042.86
2018-01-12T01:15:13.556Z,102043.78
2018-01-12T01:17:41.080Z,102044.73
2018-01-12T01:20:08.620Z,102051.80
2018-01-12T01:22:36.148Z,102053.53
2018-01-12T01:25:03.672Z,102049.52
2018-01-12T01:27:31.201Z,102049.88
2018-01-12T01:29:58.726Z,102049.95
2018-01-12T01:32:26.246Z,102055.66
2018-01-12T01:34:53.809Z,102057.35
2018-01-12T01:37:21.333Z,102060.08
2018-01-12T01:39:48.862Z,102056.52
2018-01-12T01:42:16.381Z,102059.16
2018-01-12T01:44:43.909Z,102066.70
2018-01-12T01:47:11.435Z,102067.11
2018-01-12T01:49:38.962Z,102066.38
2018-01-12T01:52:06.513Z,102067.95
2018-01-12T01:54:34.119Z,102064.94
2018-01-12T01:57:01.645Z,102066.78
2018-01-12T01:59:29.181Z,102070.76
2018-01-12T02:01:56.715Z,102071.67
2018-01-12T02:04:24.348Z,102067.78
2018-01-12T02:06:51.873Z,102067.81
2018-01-12T02:09:19.417Z,102073.96
2018-01-12T02:11:46.968Z,102076.58
2018-01-12T02:14:14.501Z,102082.20
2018-01-12T02:16:42.026Z,102084.97
2018-01-12T02:19:09.553Z,102085.77
2018-01-12T02:21:37.145Z,102087.06
2018-01-12T02:24:04.737Z,102086.66
2018-01-12T02:26:32.265Z,102094.97
2018-01-12T02:28:59.790Z,102091.80
2018-01-12T02:31:27.412Z,102095.05
2018-01-12T02:33:54.937Z,102098.55
2018-01-12T02:36:22.469Z,102099.75
2018-01-12T02:38:49.996Z,102101.07
2018-01-12T02:41:17.522Z,102111.23
2018-01-12T02:43:45.114Z,102105.05
2018-01-12T02:46:12.635Z,102117.02
2018-01-12T02:48:40.237Z,102122.71
2018-01-12T02:51:07.762Z,102120.11
2018-01-12T02:53:35.322Z,102121.86
2018-01-12T02:56:02.917Z,102124.08
2018-01-12T02:58:30.443Z,102122.36
2018-01-12T03:00:57.972Z,102128.14
2018-01-12T03:03:25.591Z,102125.48
2018-01-12T03:05:53.121Z,102132.03
2018-01-12T03:08:20.654Z,102136.89
2018-01-12T03:10:48.178Z,102142.23
2018-01-12T03:13:15.706Z,102145.28
2018-01-12T03:15:43.234Z,102147.48
2018-01-12T03:18:10.784Z,102147.97
2018-01-12T03:20:38.306Z,102153.05
2018-01-12T03:23:05.831Z,102149.16
2018-01-12T03:25:33.358Z,102151.71
2018-01-12T03:28:00.990Z,102152.64
2018-01-12T03:30:28.518Z,102157.06
2018-01-12T03:32:56.110Z,102158.78
2018-01-12T03:35:23.672Z,102161.53
2018-01-12T03:37:51.197Z,102154.37
2018-01-12T03:40:18.777Z,102158.72
2018-01-12T03:42:46.351Z,102161.44
2018-01-12T03:45:13.900Z,102158.92
2018-01-12T03:47:41.460Z,102157.06
2018-01-12T03:50:08.990Z,102161.81
2018-01-12T03:52:36.518Z,102166.34
2018-01-12T03:55:04.051Z,102172.91
2018-01-12T03:57:31.573Z,102167.70
2018-01-12T03:59:59.162Z,102167.61
2018-01-12T04:02:26.729Z,102168.01
2018-01-12T04:04:54.257Z,102172.07
2018-01-12T04:07:21.806Z,102167.17
2018-01-12T04:09:49.338Z,102174.29
2018-01-12T04:12:16.868Z,102175.50
2018-01-12T04:14:44.397Z,102173.80
2018-01-12T04:17:11.919Z,102169.67
2018-01-12T04:19:39.448Z,102173.15
2018-01-12T04:22:06.978Z,102173.79
2018-01-12T04:24:34.511Z,102178.65
2018-01-12T04:27:02.124Z,102180.66
2018-01-12T04:29:29.684Z,102195.54
2018-01-12T04:31:57.212Z,102187.21
2018-01-12T04:34:24.801Z,102192.02
2018-01-12T04:36:52.322Z,102191.03
2018-01-12T04:39:19.854Z,102189.70
2018-01-12T04:41:47.383Z,102187.48
2018-01-12T04:44:14.918Z,102195.93
2018-01-12T04:46:42.442Z,102191.97
2018-01-12T04:49:09.970Z,102197.70
2018-01-12T04:51:37.623Z,102191.03
2018-01-12T04:54:05.152Z,102201.30
2018-01-12T04:56:32.738Z,102195.05
2018-01-12T04:59:01.253Z,102202.22
2018-01-12T05:01:28.786Z,102201.51
2018-01-12T05:03:56.301Z,102203.49
2018-01-12T05:06:23.834Z,102209.00
2018-01-12T05:08:51.362Z,102208.63
2018-01-12T05:11:18.896Z,102207.30
2018-01-12T05:13:46.439Z,102210.21
2018-01-12T05:16:13.970Z,102214.36
2018-01-12T05:18:41.506Z,102219.27
2018-01-12T05:21:09.026Z,102219.28
2018-01-12T05:23:36.544Z,102219.70
2018-01-12T05:26:04.065Z,102219.16
2018-01-12T05:28:31.589Z,102224.52
2018-01-12T05:30:59.121Z,102227.91
2018-01-12T05:33:26.657Z,102223.94
2018-01-12T05:35:54.186Z,102230.12
2018-01-12T05:38:21.776Z,102220.80
2018-01-12T05:40:49.305Z,102226.64
2018-01-12T05:43:16.867Z,102232.89
2018-01-12T05:45:44.425Z,102233.27
2018-01-12T05:48:11.951Z,102243.37
2018-01-12T05:50:39.478Z,102242.47
2018-01-12T05:53:07.033Z,102241.53
2018-01-12T05:55:34.562Z,102253.52
2018-01-12T05:58:02.090Z,102248.97
2018-01-12T06:00:29.711Z,102250.78
2018-01-12T06:03:08.940Z,102254.76
2018-01-12T06:05:48.382Z,102261.27
2018-01-12T06:08:15.913Z,102260.50
2018-01-12T06:10:43.437Z,102264.91
2018-01-12T06:13:10.967Z,102258.17
2018-01-12T06:15:38.520Z,102263.39
2018-01-12T06:18:06.045Z,102270.45
2018-01-12T06:20:33.574Z,102274.63
2018-01-12T06:23:01.088Z,102278.95
2018-01-12T06:25:28.606Z,102276.77
2018-01-12T06:27:56.136Z,102282.12
2018-01-12T06:30:23.656Z,102287.22
2018-01-12T06:32:51.179Z,102287.59
2018-01-12T06:35:18.697Z,102292.06
2018-01-12T06:37:46.215Z,102293.01
2018-01-12T06:40:13.770Z,102300.08
2018-01-12T06:42:41.301Z,102310.10
2018-01-12T06:45:08.831Z,102320.67
2018-01-12T06:47:36.368Z,102326.34
2018-01-12T06:50:03.901Z,102325.09
2018-01-12T06:52:31.417Z,102329.55
2018-01-12T06:54:58.937Z,102323.02
2018-01-12T06:57:26.465Z,102330.31
2018-01-12T06:59:53.990Z,102331.65
2018-01-12T07:02:21.505Z,102335.84
2018-01-12T07:04:49.037Z,102336.48
2018-01-12T07:07:16.564Z,102342.01
2018-01-12T07:09:44.085Z,102351.71
2018-01-12T07:12:11.632Z,102347.30
2018-01-12T07:14:39.182Z,102350.97
2018-01-12T07:17:06.707Z,102358.70
2018-01-12T07:19:34.230Z,102357.30
2018-01-12T07:22:13.639Z,102363.46
2018-01-12T07:24:41.166Z,102373.67
2018-01-12T07:27:08.704Z,102363.59
2018-01-12T07:29:36.277Z,102374.71
2018-01-12T07:32:03.800Z,102377.86
2018-01-12T07:34:31.358Z,102375.42
2018-01-12T07:36:58.923Z,102376.84
2018-01-12T07:39:26.445Z,102383.60
2018-01-12T07:41:53.974Z,102380.66
2018-01-12T07:44:21.501Z,102388.69
2018-01-12T07:46:49.035Z,102393.52
2018-01-12T07:49:16.556Z,102393.01
2018-01-12T07:51:44.117Z,102396.31
2018-01-12T07:54:11.670Z,102391.23
2018-01-12T07:56:39.192Z,102391.38
2018-01-12T07:59:06.708Z,102394.86
2018-01-12T08:01:39.889Z,102397.20
2018-01-12T08:04:07.414Z,102400.65
2018-01-12T08:06:34.939Z,102399.39
2018-01-12T08:09:02.460Z,102397.93
2018-01-12T08:11:29.991Z,102397.95
2018-01-12T08:13:57.549Z,102400.00
2018-01-12T08:16:25.073Z,102407.05
2018-01-12T08:18:52.590Z,102409.17
2018-01-12T08:21:20.161Z,102406.97
2018-01-12T08:23:47.680Z,102404.70
2018-01-12T08:26:15.282Z,102414.28
2018-01-12T08:28:42.815Z,102417.85
2018-01-12T08:31:10.404Z,102414.84
2018-01-12T08:33:37.926Z,102419.83
2018-01-12T08:36:05.453Z,102427.13
2018-01-12T08:38:32.975Z,102429.77
2018-01-12T08:41:00.528Z,102424.12
2018-01-12T08:43:28.052Z,102438.75
2018-01-12T08:45:55.579Z,102435.20
2018-01-12T08:48:23.215Z,102436.09
2018-01-12T08:50:50.746Z,102436.09
2018-01-12T08:53:18.264Z,102438.00
2018-01-12T08:55:45.800Z,102440.37
2018-01-12T08:58:13.322Z,102440.35
2018-01-12T09:00:40.915Z,102439.34
2018-01-12T09:03:08.433Z,102440.13
2018-01-12T09:05:35.961Z,102457.27
2018-01-12T09:08:03.477Z,102455.72
2018-01-12T09:10:31.088Z,102461.05
2018-01-12T09:12:58.590Z,102456.63
2018-01-12T09:15:29.077Z,102463.46
2018-01-12T09:18:00.419Z,102465.88
2018-01-12T09:20:33.810Z,102467.56
2018-01-12T09:23:12.214Z,102470.14
2018-01-12T09:25:39.737Z,102481.63
2018-01-12T09:28:07.319Z,102477.14
2018-01-12T09:30:34.842Z,102479.88
2018-01-12T09:33:02.405Z,102479.91
2018-01-12T09:35:30.003Z,102481.78
2018-01-12T09:38:09.298Z,102484.95
2018-01-12T09:40:48.145Z,102490.60
2018-01-12T09:43:15.672Z,102483.55
2018-01-12T09:45:43.388Z,102487.05
2018-01-12T09:48:37.677Z,102492.50
2018-01-12T09:51:05.200Z,102492.34
2018-01-12T09:53:32.788Z,102495.83
2018-01-12T09:56:00.364Z,102499.94
2018-01-12T09:58:27.882Z,102498.12
2018-01-12T10:00:56.298Z,102495.45
2018-01-12T10:03:23.818Z,102492.44
2018-01-12T10:05:51.361Z,102495.25
2018-01-12T10:08:24.806Z,102499.27
2018-01-12T10:10:52.329Z,102500.22
2018-01-12T10:13:19.850Z,102500.23
2018-01-12T10:15:47.368Z,102500.84
2018-01-12T10:18:26.709Z,102502.65
2018-01-12T10:20:54.230Z,102500.52
2018-01-12T10:23:21.755Z,102501.34
2018-01-12T10:25:49.270Z,102507.19
2018-01-12T10:28:19.484Z,102510.77
2018-01-12T10:30:59.644Z,102509.64
2018-01-12T10:33:42.724Z,102501.56
2018-01-12T10:36:10.245Z,102509.38
2018-01-12T10:38:37.772Z,102506.66
2018-01-12T10:41:17.974Z,102509.42
2018-01-12T10:43:45.493Z,102511.66
2018-01-12T10:46:28.744Z,102506.71
2018-01-12T10:48:57.195Z,102513.70
2018-01-12T10:51:36.797Z,102508.63
2018-01-12T10:54:04.322Z,102526.00
2018-01-12T10:56:31.837Z,102523.41
2018-01-12T10:58:59.465Z,102529.58
2018-01-12T11:01:26.991Z,102523.34
2018-01-12T11:03:54.517Z,102535.42
2018-01-12T11:06:22.144Z,102539.59
2018-01-12T11:08:49.700Z,102540.52
2018-01-12T11:11:17.220Z,102540.48
2018-01-12T11:13:45.744Z,102549.53
2018-01-12T11:16:13.301Z,102539.58
2018-01-12T11:18:40.836Z,102540.92
2018-01-12T11:21:08.356Z,102534.64
2018-01-12T11:23:35.872Z,102539.60
2018-01-12T11:26:03.400Z,102541.52
2018-01-12T11:28:30.919Z,102536.65
2018-01-12T11:30:58.461Z,102536.73
2018-01-12T11:33:25.980Z,102535.92
2018-01-12T11:35:53.500Z,102521.63
2018-01-12T11:38:21.022Z,102528.95
2018-01-12T11:40:48.554Z,102534.77
2018-01-12T11:43:16.081Z,102533.73
2018-01-12T11:45:43.719Z,102529.80
2018-01-12T11:48:11.279Z,102535.34
2018-01-12T11:50:38.798Z,102531.59
2018-01-12T11:53:06.407Z,102525.98
2018-01-12T11:55:33.924Z,102530.05
2018-01-12T11:58:01.467Z,102535.27
2018-01-12T12:00:29.008Z,102535.02
2018-01-12T12:02:56.536Z,102530.55
2018-01-12T12:05:24.052Z,102535.25
2018-01-12T12:07:51.583Z,102535.34
2018-01-12T12:10:19.102Z,102539.81
2018-01-12T12:12:46.661Z,102539.97
2018-01-12T12:15:14.231Z,102535.41
2018-01-12T12:17:41.781Z,102533.88
2018-01-12T12:20:09.305Z,102541.00
2018-01-12T12:22:36.845Z,102532.83
2018-01-12T12:25:04.468Z,102534.60
2018-01-12T12:27:32.001Z,102542.63
2018-01-12T12:29:59.532Z,102530.98
2018-01-12T12:32:27.120Z,102538.70
2018-01-12T12:34:54.725Z,102530.24
2018-01-12T12:37:22.246Z,102534.08
2018-01-12T12:39:49.761Z,102528.27
2018-01-12T12:42:17.291Z,102528.33
2018-01-12T12:44:44.865Z,102542.54
2018-01-12T12:47:12.386Z,102535.42
2018-01-12T12:49:40.076Z,102540.69
2018-01-12T12:52:07.595Z,102532.02
2018-01-12T12:54:35.148Z,102537.97
2018-01-12T12:57:02.739Z,102540.04
2018-01-12T12:59:30.261Z,102537.91
2018-01-12T13:01:57.773Z,102540.24
2018-01-12T13:04:25.301Z,102534.74
2018-01-12T13:06:52.891Z,102543.05
2018-01-12T13:09:20.451Z,102541.19
2018-01-12T13:11:48.007Z,102536.34
2018-01-12T13:14:15.585Z,102543.70
2018-01-12T13:16:43.106Z,102537.53
2018-01-12T13:19:10.634Z,102537.03
2018-01-12T13:21:38.166Z,102538.48
2018-01-12T13:24:05.686Z,102542.75
2018-01-12T13:26:33.208Z,102549.83
2018-01-12T13:29:00.824Z,102544.94
2018-01-12T13:31:28.341Z,102548.20
2018-01-12T13:33:55.869Z,102552.12
2018-01-12T13:36:23.380Z,102549.81
2018-01-12T13:38:50.966Z,102551.12
2018-01-12T13:41:18.496Z,102556.13
2018-01-12T13:43:46.021Z,102556.53
2018-01-12T13:46:13.596Z,102560.73
2018-01-12T13:48:41.106Z,102557.27
2018-01-12T13:51:08.666Z,102557.02
2018-01-12T13:53:36.213Z,102567.98
2018-01-12T13:56:03.755Z,102574.23
2018-01-12T13:58:31.285Z,102569.77
2018-01-12T14:00:58.808Z,102578.20
2018-01-12T14:03:26.335Z,102578.67
2018-01-12T14:05:53.879Z,102581.09
2018-01-12T14:08:21.401Z,102579.25
2018-01-12T14:10:49.065Z,102586.02
2018-01-12T14:13:16.598Z,102580.06
2018-01-12T14:15:44.224Z,102573.79
2018-01-12T14:18:11.822Z,102576.91
2018-01-12T14:20:39.336Z,102578.93
2018-01-12T14:23:06.866Z,102573.67
2018-01-12T14:25:34.402Z,102574.75
2018-01-12T14:28:01.931Z,102578.22
2018-01-12T14:30:29.451Z,102586.25
2018-01-12T14:32:56.968Z,102587.07
2018-01-12T14:35:24.492Z,102589.32
2018-01-12T14:37:52.022Z,102587.50
2018-01-12T14:40:19.541Z,102591.45
2018-01-12T14:42:47.112Z,102593.16
2018-01-12T14:45:14.640Z,102589.95
2018-01-12T14:47:42.237Z,102592.26
2018-01-12T14:50:09.791Z,102597.18
2018-01-12T14:52:37.351Z,102597.62
2018-01-12T14:55:04.932Z,102610.52
2018-01-12T14:57:32.567Z,102612.64
2018-01-12T15:00:00.091Z,102609.63
2018-01-12T15:02:27.634Z,102611.34
2018-01-12T15:04:55.213Z,102609.22
2018-01-12T15:07:22.712Z,102612.80
2018-01-12T15:09:50.233Z,102625.81
2018-01-12T15:12:17.760Z,102625.55
2018-01-12T15:14:45.290Z,102619.74
2018-01-12T15:17:12.813Z,102618.38
2018-01-12T15:19:40.365Z,102613.83
2018-01-12T15:22:07.907Z,102624.86
2018-01-12T15:24:35.536Z,102626.06
2018-01-12T15:27:03.049Z,102634.04
2018-01-12T15:29:30.654Z,102632.06
2018-01-12T15:31:58.171Z,102633.66
2018-01-12T15:34:25.729Z,102631.55
2018-01-12T15:36:53.258Z,102633.74
2018-01-12T15:39:20.894Z,102630.15
2018-01-12T15:41:48.776Z,102630.14
2018-01-12T15:44:16.321Z,102637.93
2018-01-12T15:46:43.850Z,102638.27
2018-01-12T15:49:11.369Z,102641.28
2018-01-12T15:51:38.891Z,102645.84
2018-01-12T15:54:06.413Z,102641.35
2018-01-12T15:56:33.944Z,102642.23
2018-01-12T15:59:01.473Z,102646.28
2018-01-12T16:01:28.995Z,102651.13
2018-01-12T16:03:56.558Z,102644.46
2018-01-12T16:06:24.114Z,102654.26
2018-01-12T16:08:51.705Z,102656.90
2018-01-12T16:11:19.249Z,102660.27
2018-01-12T16:13:46.774Z,102665.00
2018-01-12T16:16:14.361Z,102671.17
2018-01-12T16:18:41.918Z,102662.09
2018-01-12T16:21:09.525Z,102656.91
2018-01-12T16:23:37.090Z,102660.92
2018-01-12T16:26:04.633Z,102662.59
2018-01-12T16:28:32.164Z,102670.22
2018-01-12T16:30:59.744Z,102663.23
2018-01-12T16:33:27.261Z,102663.86
2018-01-12T16:35:54.778Z,102672.22
2018-01-12T16:38:22.320Z,102664.84
2018-01-12T16:40:49.852Z,102671.61
2018-01-12T16:43:17.422Z,102669.52
2018-01-12T16:45:44.952Z,102672.69
2018-01-12T16:48:12.574Z,102679.80
2018-01-12T16:50:40.104Z,102683.24
2018-01-12T16:53:07.626Z,102681.17
2018-01-12T16:55:35.147Z,102685.83
2018-01-12T16:58:02.676Z,102687.04
2018-01-12T17:00:30.202Z,102684.52
2018-01-12T17:02:57.821Z,102683.69
2018-01-12T17:05:25.341Z,102690.17
2018-01-12T17:07:52.878Z,102695.47
2018-01-12T17:10:20.616Z,102686.72
2018-01-12T17:12:48.133Z,102692.03
2018-01-12T17:15:15.675Z,102691.55
2018-01-12T17:17:43.217Z,102688.04
2018-01-12T17:20:10.761Z,102690.31
2018-01-12T17:22:38.286Z,102693.94
2018-01-12T17:25:05.875Z,102687.95
2018-01-12T17:27:33.410Z,102693.63
2018-01-12T17:30:00.964Z,102695.38
2018-01-12T17:32:28.571Z,102699.69
2018-01-12T17:34:56.098Z,102701.11
2018-01-12T17:37:23.625Z,102688.03
2018-01-12T17:39:51.162Z,102691.64
2018-01-12T17:42:18.792Z,102701.34
2018-01-12T17:44:46.330Z,102698.44
2018-01-12T17:47:13.853Z,102697.72
2018-01-12T17:49:41.370Z,102700.45
2018-01-12T17:52:08.905Z,102702.68
2018-01-12T17:54:36.420Z,102695.30
2018-01-12T17:57:03.949Z,102705.14
2018-01-12T17:59:31.487Z,102699.97
2018-01-12T18:01:59.068Z,102703.69
2018-01-12T18:04:26.597Z,102703.91
2018-01-12T18:06:54.142Z,102704.53
2018-01-12T18:09:21.758Z,102703.77
2018-01-12T18:11:49.306Z,102712.95
2018-01-12T18:14:16.863Z,102711.24
2018-01-12T18:16:44.487Z,102711.27
2018-01-12T18:19:12.105Z,102710.72
2018-01-12T18:21:39.635Z,102715.86
2018-01-12T18:24:07.160Z,102714.41
2018-01-12T18:26:34.776Z,102716.72
2018-01-12T18:29:02.314Z,102717.36
2018-01-12T18:31:29.999Z,102722.66
2018-01-12T18:33:57.541Z,102723.41
2018-01-12T18:36:25.077Z,102732.50
2018-01-12T18:38:52.638Z,102730.58
2018-01-12T18:41:20.400Z,102739.15
2018-01-12T18:43:47.944Z,102741.02
2018-01-12T18:46:15.472Z,102742.23
2018-01-12T18:48:42.997Z,102749.73
2018-01-12T18:51:10.528Z,102744.63
2018-01-12T18:53:38.060Z,102747.62
2018-01-12T18:56:05.573Z,102750.25
2018-01-12T18:58:33.107Z,102743.52
2018-01-12T19:01:00.637Z,102748.75
2018-01-12T19:03:28.169Z,102751.93
2018-01-12T19:05:55.798Z,102751.46
2018-01-12T19:08:23.324Z,102751.51
2018-01-12T19:10:50.962Z,102756.20
2018-01-12T19:13:18.500Z,102754.77
2018-01-12T19:15:46.017Z,102768.55
2018-01-12T19:18:13.633Z,102770.47
2018-01-12T19:20:41.213Z,102778.38
2018-01-12T19:23:08.765Z,102773.35
2018-01-12T19:25:36.297Z,102770.77
2018-01-12T19:28:03.847Z,102778.47
2018-01-12T19:30:31.437Z,102772.55
2018-01-12T19:32:58.962Z,102780.50
2018-01-12T19:35:26.599Z,102778.81
2018-01-12T19:37:54.489Z,102784.69
2018-01-12T19:40:22.018Z,102779.39
2018-01-12T19:42:49.645Z,102784.92
2018-01-12T19:45:17.208Z,102790.22
2018-01-12T19:47:44.746Z,102786.80
2018-01-12T19:50:12.289Z,102789.75
2018-01-12T19:52:39.831Z,102789.77
2018-01-12T19:55:07.449Z,102786.50
2018-01-12T19:57:35.217Z,102794.27
2018-01-12T20:00:02.768Z,102787.99
2018-01-12T20:02:30.287Z,102794.60
2018-01-12T20:04:57.958Z,102798.40
2018-01-12T20:07:25.703Z,102796.26
2018-01-12T20:09:53.377Z,102796.10
2018-01-12T20:12:21.054Z,102788.77
2018-01-12T20:14:49.239Z,102791.98
2018-01-12T20:17:16.787Z,102792.48
2018-01-12T20:19:44.413Z,102797.75
2018-01-12T20:22:12.028Z,102793.02
2018-01-12T20:24:39.562Z,102794.20
2018-01-12T20:27:07.090Z,102801.98
2018-01-12T20:29:34.654Z,102798.61
2018-01-12T20:32:02.181Z,102800.78
2018-01-12T20:34:29.710Z,102804.64
2018-01-12T20:36:57.234Z,102805.30
2018-01-12T20:39:24.777Z,102803.70
2018-01-12T20:41:52.341Z,102803.77
2018-01-12T20:44:19.867Z,102809.52
2018-01-12T20:46:47.598Z,102812.05
2018-01-12T20:49:15.122Z,102814.24
2018-01-12T20:51:42.776Z,102821.91
2018-01-12T20:54:10.317Z,102817.11
2018-01-12T20:56:37.836Z,102815.05
2018-01-12T20:59:05.418Z,102818.89
2018-01-12T21:01:32.963Z,102816.58
2018-01-12T21:04:00.548Z,102817.63
2018-01-12T21:06:28.250Z,102822.64
2018-01-12T21:08:55.806Z,102821.03
2018-01-12T21:11:23.354Z,102824.08
2018-01-12T21:13:50.882Z,102822.33
2018-01-12T21:16:18.506Z,102816.06
2018-01-12T21:18:46.218Z,102822.66
2018-01-12T21:21:13.747Z,102822.56
2018-01-12T21:23:41.347Z,102823.80
2018-01-12T21:26:08.865Z,102824.73
2018-01-12T21:28:36.406Z,102834.66
2018-01-12T21:31:04.055Z,102832.70
2018-01-12T21:33:31.685Z,102838.76
2018-01-12T21:35:59.226Z,102841.55
2018-01-12T21:38:27.723Z,102835.50
2018-01-12T21:40:57.441Z,102835.89
2018-01-12T21:43:25.010Z,102838.52
2018-01-12T21:45:53.594Z,102838.04
2018-01-12T21:48:21.141Z,102832.47
2018-01-12T21:50:48.730Z,102841.41
2018-01-12T21:53:16.240Z,102848.39
2018-01-12T21:55:43.820Z,102850.26
2018-01-12T21:58:11.357Z,102846.04
2018-01-12T22:00:38.967Z,102851.00
2018-01-12T22:03:06.797Z,102849.16
2018-01-12T22:05:34.370Z,102852.59
2018-01-12T22:08:01.979Z,102855.33
2018-01-12T22:10:29.511Z,102856.78
2018-01-12T22:12:57.136Z,102859.20
2018-01-12T22:15:24.666Z,102856.63
2018-01-12T22:17:52.195Z,102853.14
2018-01-12T22:20:19.740Z,102859.63
2018-01-12T22:22:47.264Z,102854.31
2018-01-12T22:25:14.811Z,102851.23
2018-01-12T22:27:42.523Z,102860.20
2018-01-12T22:30:10.045Z,102847.16
2018-01-12T22:32:37.621Z,102847.83
2018-01-12T22:35:05.198Z,102843.97
2018-01-12T22:37:32.786Z,102847.61
2018-01-12T22:40:00.308Z,102833.94
2018-01-12T22:42:27.851Z,102843.99
2018-01-12T22:44:55.400Z,102843.11
2018-01-12T22:47:22.968Z,102849.56
2018-01-12T22:49:50.533Z,102845.48
2018-01-12T22:52:18.136Z,102844.70
2018-01-12T22:54:45.690Z,102843.50
2018-01-12T22:57:13.255Z,102841.19
2018-01-12T22:59:40.788Z,102848.07
2018-01-12T23:02:08.340Z,102845.94
2018-01-12T23:04:35.874Z,102845.20
2018-01-12T23:07:03.574Z,102846.48
2018-01-12T23:09:31.852Z,102837.70
2018-01-12T23:11:59.391Z,102845.96
2018-01-12T23:14:26.922Z,102845.27
2018-01-12T23:16:54.453Z,102844.27
2018-01-12T23:19:22.189Z,102844.76
2018-01-12T23:21:49.761Z,102836.00
2018-01-12T23:24:17.411Z,102840.20
2018-01-12T23:26:44.936Z,102838.43
2018-01-12T23:29:12.530Z,102841.62
2018-01-12T23:31:40.139Z,102835.48
2018-01-12T23:34:07.740Z,102840.34
2018-01-12T23:36:35.281Z,102840.13
2018-01-12T23:39:02.885Z,102845.69
2018-01-12T23:41:30.482Z,102843.39
2018-01-12T23:43:58.090Z,102842.38
2018-01-12T23:46:25.709Z,102842.08
2018-01-12T23:48:53.252Z,102832.37
2018-01-12T23:51:20.889Z,102832.84
2018-01-12T23:53:48.449Z,102831.60
2018-01-12T23:56:15.997Z,102844.27
2018-01-12T23:58:43.528Z,102834.34
